Last 24 Hours

UH Manoa Atmospheric Sciences

15 Minute Data | Pacific/Honolulu
as of 5/25/22 2:25 AM HST
Station Date Time Temp (°F) RH (%) Dew Pt (°F) Wind Spd (mph) Wind Dir (°) Wind Gust (mph) Latest Rain (In) Solar Rad (W/m2) Heat Index (°F) Barometric Press (inHg) Daily Rain (In) Daily Min Temp (°F) Daily Max Temp (°F) Daily Max Wind (mph)
UH Manoa Atmospheric Sciences 5/25/22 0215 74.0 75 65.6 3.3 ENE | 65 6.6 0.00 0 74.0 30.03 0.00 73.8 75.0 10.7
UH Manoa Atmospheric Sciences 5/25/22 0200 74.0 74 65.3 4.2 ENE | 72 7.1 0.00 0 74.0 30.03 0.00 73.8 75.0 10.7
UH Manoa Atmospheric Sciences 5/25/22 0145 73.9 74 65.3 2.8 ENE | 68 5.9 0.00 0 73.9 30.04 0.00 73.8 75.0 10.7
UH Manoa Atmospheric Sciences 5/25/22 0130 74.0 75 65.6 3.7 ENE | 73 6.4 0.00 0 74.0 30.04 0.00 73.9 75.0 10.7
UH Manoa Atmospheric Sciences 5/25/22 0115 74.3 75 65.9 4.5 ENE | 61 8.6 0.00 0 74.3 30.04 0.00 74.1 75.0 10.7
UH Manoa Atmospheric Sciences 5/25/22 0100 74.4 75 65.8 4.5 ENE | 69 10.7 0.00 0 74.4 30.04 0.00 74.2 75.0 10.7
UH Manoa Atmospheric Sciences 5/25/22 0045 74.6 74 65.9 5.0 ENE | 68 9.0 0.00 0 74.6 30.05 0.00 74.5 75.0 9.1
UH Manoa Atmospheric Sciences 5/25/22 0030 74.7 75 66.1 3.9 ENE | 73 9.1 0.00 0 74.7 30.05 0.00 74.5 75.0 9.1
UH Manoa Atmospheric Sciences 5/25/22 0015 74.8 74 66.1 4.2 ENE | 73 8.5 0.00 0 74.8 30.05 0.00 74.6 75.0 8.5
UH Manoa Atmospheric Sciences 5/25/22 0000 74.6 74 65.7 3.2 ENE | 73 6.8 0.00 0 74.6 30.06 0.00 73.6 82.2 28.7
UH Manoa Atmospheric Sciences 5/24/22 2345 74.5 73 65.4 3.8 ENE | 63 9.2 0.00 0 74.5 30.06 0.00 73.6 82.2 28.7
UH Manoa Atmospheric Sciences 5/24/22 2330 74.2 73 65.0 4.1 ENE | 66 6.5 0.00 0 74.2 30.07 0.00 73.6 82.2 28.7
UH Manoa Atmospheric Sciences 5/24/22 2315 75.0 71 64.9 5.3 NE | 36 10.7 0.00 0 75.0 30.07 0.00 73.6 82.2 28.7
UH Manoa Atmospheric Sciences 5/24/22 2300 75.0 70 64.5 6.9 NE | 56 13.6 0.00 0 75.0 30.07 0.00 73.6 82.2 28.7
UH Manoa Atmospheric Sciences 5/24/22 2245 74.9 69 64.1 7.8 ENE | 62 16.7 0.00 0 74.9 30.07 0.00 73.6 82.2 28.7
UH Manoa Atmospheric Sciences 5/24/22 2230 75.0 67 63.5 8.5 ENE | 65 16.0 0.00 0 75.0 30.07 0.00 73.6 82.2 28.7
UH Manoa Atmospheric Sciences 5/24/22 2215 75.1 66 63.2 7.8 ENE | 60 15.0 0.00 0 75.1 30.07 0.00 73.6 82.2 28.7
UH Manoa Atmospheric Sciences 5/24/22 2200 75.0 68 63.8 4.6 NE | 53 11.0 0.00 0 75.0 30.07 0.00 73.6 82.2 28.7
UH Manoa Atmospheric Sciences 5/24/22 2145 75.2 68 63.9 5.7 NE | 48 10.4 0.00 0 75.2 30.07 0.00 73.6 82.2 28.7
UH Manoa Atmospheric Sciences 5/24/22 2130 75.1 69 64.1 8.2 NE | 41 14.1 0.00 0 75.1 30.06 0.00 73.6 82.2 28.7
UH Manoa Atmospheric Sciences 5/24/22 2115 75.3 68 64.1 6.3 NE | 44 14.0 0.00 0 75.3 30.06 0.00 73.6 82.2 28.7
UH Manoa Atmospheric Sciences 5/24/22 2100 75.2 69 64.2 8.5 NE | 47 17.9 0.00 0 75.2 30.06 0.00 73.6 82.2 28.7
UH Manoa Atmospheric Sciences 5/24/22 2045 75.3 69 64.4 9.9 NE | 41 16.4 0.00 0 75.3 30.05 0.00 73.6 82.2 28.7
UH Manoa Atmospheric Sciences 5/24/22 2030 75.4 68 64.3 10.5 NE | 37 20.4 0.00 0 75.4 30.05 0.00 73.6 82.2 28.7
UH Manoa Atmospheric Sciences 5/24/22 2015 75.5 69 64.5 10.1 NE | 36 18.0 0.00 0 75.5 30.04 0.00 73.6 82.2 28.7
UH Manoa Atmospheric Sciences 5/24/22 2000 75.6 68 64.5 8.3 NE | 39 14.5 0.00 0 75.6 30.04 0.00 73.6 82.2 28.7
UH Manoa Atmospheric Sciences 5/24/22 1945 75.8 69 64.8 7.6 NE | 43 14.8 0.00 0 75.8 30.03 0.00 73.6 82.2 28.7
UH Manoa Atmospheric Sciences 5/24/22 1930 75.9 69 65.1 9.7 NE | 43 18.7 0.00 0 75.9 30.03 0.00 73.6 82.2 28.7
UH Manoa Atmospheric Sciences 5/24/22 1915 76.1 70 65.6 10.1 NE | 42 18.6 0.00 1 76.1 30.02 0.00 73.6 82.2 28.7
UH Manoa Atmospheric Sciences 5/24/22 1900 76.2 70 65.9 11.2 NE | 42 22.1 0.00 13 76.2 30.02 0.00 73.6 82.2 28.7
UH Manoa Atmospheric Sciences 5/24/22 1845 76.6 70 66.1 11.4 NE | 41 19.9 0.00 64 76.6 30.01 0.00 73.6 82.2 28.7
UH Manoa Atmospheric Sciences 5/24/22 1830 76.9 69 66.1 11.6 NE | 37 19.4 0.00 106 76.9 30.00 0.00 73.6 82.2 28.7
UH Manoa Atmospheric Sciences 5/24/22 1815 77.3 68 66.0 12.1 NE | 41 18.8 0.00 167 77.3 30.00 0.00 73.6 82.2 28.7
UH Manoa Atmospheric Sciences 5/24/22 1800 77.7 67 66.0 11.7 NE | 38 19.5 0.00 217 77.7 30.00 0.00 73.6 82.2 28.7
UH Manoa Atmospheric Sciences 5/24/22 1745 78.0 67 66.2 12.1 NE | 41 21.4 0.00 269 78.0 29.99 0.00 73.6 82.2 28.7
UH Manoa Atmospheric Sciences 5/24/22 1730 78.5 66 66.1 11.4 NE | 38 19.7 0.00 323 78.5 29.99 0.00 73.6 82.2 28.7
UH Manoa Atmospheric Sciences 5/24/22 1715 78.9 65 66.0 10.8 NE | 38 17.7 0.00 374 78.9 29.99 0.00 73.6 82.2 28.7
UH Manoa Atmospheric Sciences 5/24/22 1700 78.8 64 65.8 11.5 NE | 34 20.0 0.00 389 78.8 29.99 0.00 73.6 82.2 28.7
UH Manoa Atmospheric Sciences 5/24/22 1645 79.2 63 65.6 13.0 NE | 37 22.1 0.00 466 79.2 29.99 0.00 73.6 82.2 28.7
UH Manoa Atmospheric Sciences 5/24/22 1630 79.2 63 65.7 12.0 NE | 36 21.1 0.00 542 79.2 30.00 0.00 73.6 82.2 28.7
UH Manoa Atmospheric Sciences 5/24/22 1615 79.0 64 65.8 14.0 NE | 43 25.3 0.00 587 79.0 30.00 0.00 73.6 82.2 28.7
UH Manoa Atmospheric Sciences 5/24/22 1600 79.3 64 66.0 15.0 NE | 38 28.7 0.00 646 79.3 30.00 0.00 73.6 82.2 28.7
UH Manoa Atmospheric Sciences 5/24/22 1545 79.7 63 66.0 13.3 NE | 40 21.2 0.00 692 80.1 30.00 0.00 73.6 82.2 23.4
UH Manoa Atmospheric Sciences 5/24/22 1530 80.1 61 65.7 11.6 NE | 36 20.9 0.00 685 81.6 30.01 0.00 73.6 82.2 23.4
UH Manoa Atmospheric Sciences 5/24/22 1515 80.2 61 65.4 13.3 NE | 39 22.6 0.00 784 82.0 30.02 0.00 73.6 82.2 23.4
UH Manoa Atmospheric Sciences 5/24/22 1500 80.1 61 65.5 12.9 NE | 37 23.4 0.00 831 81.4 30.02 0.00 73.6 82.2 23.4
UH Manoa Atmospheric Sciences 5/24/22 1445 80.0 61 65.5 12.4 NE | 38 21.2 0.00 864 81.0 30.03 0.00 73.6 82.2 23.1
UH Manoa Atmospheric Sciences 5/24/22 1430 80.6 60 65.6 12.3 NE | 42 22.5 0.00 896 82.2 30.03 0.00 73.6 82.2 23.1
UH Manoa Atmospheric Sciences 5/24/22 1415 80.6 60 65.3 12.2 NE | 41 19.7 0.00 925 82.5 30.03 0.00 73.6 82.2 23.1
UH Manoa Atmospheric Sciences 5/24/22 1400 81.3 59 65.8 9.3 NE | 40 20.8 0.00 949 83.4 30.04 0.00 73.6 82.2 23.1
UH Manoa Atmospheric Sciences 5/24/22 1345 81.0 60 65.8 9.4 NE | 50 19.0 0.00 970 83.0 30.05 0.00 73.6 82.2 23.1
UH Manoa Atmospheric Sciences 5/24/22 1330 80.1 61 65.3 13.0 NE | 38 19.2 0.00 989 81.3 30.05 0.00 73.6 82.2 23.1
UH Manoa Atmospheric Sciences 5/24/22 1315 80.3 59 64.9 12.5 NE | 38 23.0 0.00 1,000 81.9 30.06 0.00 73.6 82.2 23.1
UH Manoa Atmospheric Sciences 5/24/22 1300 79.7 61 64.9 13.2 NE | 38 22.8 0.00 1,010 80.0 30.07 0.00 73.6 82.2 23.1
UH Manoa Atmospheric Sciences 5/24/22 1245 79.9 61 65.2 13.9 NE | 39 23.1 0.00 1,016 80.9 30.07 0.00 73.6 82.2 23.1
UH Manoa Atmospheric Sciences 5/24/22 1230 79.9 61 65.2 12.6 NE | 38 22.4 0.00 1,017 80.8 30.08 0.00 73.6 82.2 23.1
UH Manoa Atmospheric Sciences 5/24/22 1215 80.6 59 65.0 10.3 NE | 42 20.0 0.00 1,019 82.2 30.08 0.00 73.6 82.2 23.1
UH Manoa Atmospheric Sciences 5/24/22 1200 80.8 59 65.0 10.5 NE | 42 23.1 0.00 1,023 82.6 30.09 0.00 73.6 82.2 23.1
UH Manoa Atmospheric Sciences 5/24/22 1145 80.7 58 64.5 9.8 NNE | 30 17.7 0.00 1,005 82.4 30.09 0.00 73.6 82.2 19.6
UH Manoa Atmospheric Sciences 5/24/22 1130 80.8 58 64.8 7.5 NNE | 28 14.8 0.00 981 82.6 30.09 0.00 73.6 82.2 19.6
UH Manoa Atmospheric Sciences 5/24/22 1115 81.1 58 64.7 7.9 NE | 38 15.2 0.00 956 82.8 30.09 0.00 73.6 82.2 19.6
UH Manoa Atmospheric Sciences 5/24/22 1100 79.8 61 65.0 9.5 NE | 36 16.8 0.00 932 80.5 30.10 0.00 73.6 81.1 19.6
UH Manoa Atmospheric Sciences 5/24/22 1045 80.4 59 64.9 8.6 NE | 40 18.5 0.00 901 82.0 30.10 0.00 73.6 81.1 19.6
UH Manoa Atmospheric Sciences 5/24/22 1030 80.3 57 64.0 8.2 NE | 39 15.1 0.00 878 81.8 30.11 0.00 73.6 80.9 19.6
UH Manoa Atmospheric Sciences 5/24/22 1015 79.8 58 63.8 9.2 NE | 42 17.4 0.00 830 80.3 30.11 0.00 73.6 80.3 19.6
UH Manoa Atmospheric Sciences 5/24/22 1000 79.3 58 63.3 9.4 NE | 42 19.6 0.00 788 79.3 30.11 0.00 73.6 80.3 19.6
UH Manoa Atmospheric Sciences 5/24/22 0945 79.2 57 62.9 9.9 NE | 40 17.1 0.00 747 79.2 30.11 0.00 73.6 80.3 18.8
UH Manoa Atmospheric Sciences 5/24/22 0930 79.5 58 63.3 7.9 NE | 39 13.9 0.00 700 79.6 30.11 0.00 73.6 80.3 18.8
UH Manoa Atmospheric Sciences 5/24/22 0915 79.1 58 63.1 8.0 NE | 45 18.8 0.00 652 79.2 30.11 0.00 73.6 80.3 18.8
UH Manoa Atmospheric Sciences 5/24/22 0900 79.1 59 63.6 6.0 NE | 46 13.3 0.00 602 79.1 30.11 0.00 73.6 79.9 18.3
UH Manoa Atmospheric Sciences 5/24/22 0845 78.1 62 63.9 6.2 NE | 45 15.0 0.00 549 78.1 30.11 0.00 73.6 79.0 18.3
UH Manoa Atmospheric Sciences 5/24/22 0830 77.6 63 64.0 8.0 NE | 38 18.3 0.00 498 77.6 30.11 0.00 73.6 78.2 18.3
UH Manoa Atmospheric Sciences 5/24/22 0815 77.3 65 64.6 7.3 NE | 53 13.3 0.00 422 77.3 30.11 0.00 73.6 77.6 13.3
UH Manoa Atmospheric Sciences 5/24/22 0800 76.9 68 65.4 4.3 ENE | 59 10.4 0.00 384 76.9 30.11 0.00 73.6 77.4 12.5
UH Manoa Atmospheric Sciences 5/24/22 0745 76.4 69 65.6 4.2 NE | 40 8.9 0.00 300 76.4 30.11 0.00 73.6 76.8 12.5
UH Manoa Atmospheric Sciences 5/24/22 0730 76.0 72 66.2 1.0 NE | 36 3.0 0.00 224 76.0 30.11 0.00 73.6 76.5 12.5
UH Manoa Atmospheric Sciences 5/24/22 0715 74.8 74 66.1 0.7 E | 90 3.6 0.00 149 74.8 30.11 0.00 73.6 76.0 12.5
UH Manoa Atmospheric Sciences 5/24/22 0700 74.5 75 66.0 1.2 WSW | 247 3.4 0.00 40 74.5 30.10 0.00 73.6 76.0 12.5
UH Manoa Atmospheric Sciences 5/24/22 0645 74.3 75 65.8 1.5 E | 88 4.9 0.00 24 74.3 30.10 0.00 73.6 76.0 12.5
UH Manoa Atmospheric Sciences 5/24/22 0630 74.0 75 65.7 1.4 SW | 221 3.3 0.00 18 74.0 30.09 0.00 73.6 76.0 12.5
UH Manoa Atmospheric Sciences 5/24/22 0615 73.8 75 65.6 0.9 E | 84 4.5 0.00 9 73.8 30.09 0.00 73.6 76.0 12.5
UH Manoa Atmospheric Sciences 5/24/22 0600 73.9 76 65.7 0.8 SSE | 153 2.8 0.00 2 73.9 30.08 0.00 73.7 76.0 12.5
UH Manoa Atmospheric Sciences 5/24/22 0545 74.0 75 65.7 0.7 SSW | 210 2.4 0.00 0 74.0 30.08 0.00 73.9 76.0 12.5
UH Manoa Atmospheric Sciences 5/24/22 0530 74.2 74 65.6 1.0 SSE | 159 3.5 0.00 0 74.2 30.07 0.00 74.0 76.0 12.5
UH Manoa Atmospheric Sciences 5/24/22 0515 74.8 73 65.6 1.4 SSE | 161 4.8 0.00 0 74.8 30.07 0.00 74.3 76.0 12.5
UH Manoa Atmospheric Sciences 5/24/22 0500 74.8 73 65.7 3.6 NE | 54 8.6 0.00 0 74.8 30.07 0.00 74.3 76.0 12.5
UH Manoa Atmospheric Sciences 5/24/22 0445 74.8 73 65.8 5.6 ENE | 65 10.0 0.00 0 74.8 30.06 0.00 74.3 76.0 12.5
UH Manoa Atmospheric Sciences 5/24/22 0430 74.6 74 65.9 4.4 ENE | 62 7.9 0.00 0 74.6 30.06 0.00 74.3 76.0 12.5
UH Manoa Atmospheric Sciences 5/24/22 0415 74.9 73 65.8 3.4 ENE | 62 7.6 0.00 0 74.9 30.06 0.00 74.3 76.0 12.5
UH Manoa Atmospheric Sciences 5/24/22 0400 74.8 74 66.0 6.1 ENE | 64 9.9 0.00 0 74.8 30.06 0.00 74.3 76.0 12.5
UH Manoa Atmospheric Sciences 5/24/22 0345 74.4 75 66.0 4.3 ENE | 66 7.0 0.00 0 74.4 30.07 0.00 74.3 76.0 12.5
UH Manoa Atmospheric Sciences 5/24/22 0330 74.6 75 66.2 3.7 ENE | 62 7.8 0.00 0 74.6 30.07 0.00 74.5 76.0 12.5
UH Manoa Atmospheric Sciences 5/24/22 0315 75.0 75 66.5 4.1 ENE | 64 7.2 0.00 0 75.0 30.07 0.00 74.6 76.0 12.5
UH Manoa Atmospheric Sciences 5/24/22 0300 75.1 75 66.8 4.8 ENE | 60 10.6 0.00 0 75.1 30.07 0.00 74.9 76.0 12.5
UH Manoa Atmospheric Sciences 5/24/22 0245 75.1 75 66.7 4.5 ENE | 74 9.5 0.00 0 75.1 30.08 0.00 75.0 76.0 12.5
UH Manoa Atmospheric Sciences 5/24/22 0230 75.2 74 66.5 4.7 ENE | 69 8.9 0.00 0 75.2 30.08 0.00 75.0 76.0 12.5
UH Manoa Atmospheric Sciences 5/24/22 0215 75.3 74 66.5 5.1 ENE | 69 9.1 0.00 0 75.3 30.08 0.00 75.1 76.0 12.5
Max     81.3 76 66.8 15.0 - 28.7 0.00 1,023 83.4 30.11 0.00 75.1 82.2 28.7
Avg     76.9 67 65.2 7.5 - 14.2 0.00 324 77.2 30.06 - - - -
Min     73.8 57 62.9 0.7 - 2.4 0.00 0 73.8 29.99 0.00 73.6 75.0 8.5